Página principal
METAR-TAF:

METAR-TAF

Aeroportos :

La Gomera, Espanha

latitude: 28-01-47N, longitude: 017-12-53W, altura: 218 m

Observação actual do tempo

O boletim foi feito há 37 minutos, às 14:30 UTC
Vento 3 kt com direcção variável
Temperatura 29°C
Humidade 40%
Pressão 1018 hPa
Visibilidade 10 km ou mais
sem nuvens abaixo de 1500 metros e sem cumulonimbus

METAR: GCGM 121430Z VRB03KT CAVOK 29/14 Q1018 RMK R09/VRB02KT ARP/VRB02KT

Hora: 16:07 (15:07 UTC)

Previsão

O boletim foi feito há 1 hora e 7 minutos, às 14:00 UTC
Previsão válida de 12 às 15 UTC a 13 às 15 UTC
Vento 5 kt com direcção variável
Visibilidade: 9000 m
Probabilidade 40% :
Temporariamente
de 12 às 15 UTC a 12 às 16 UTC
Vento 10 kt de sudoeste
Probabilidade 30% :
Temporariamente
de 13 às 08 UTC a 13 às 10 UTC
Vento 10 kt de oeste

TAF: GCGM 121400Z 1215/1315 VRB05KT 9000 NSC TX29/1314Z TN20/1306Z PROB40 TEMPO 1215/1216 23010KT PROB30 TEMPO 1308/1310 26010KT

Observações e previsões do tempo de mais de 4000 aeroportos (mensagens METAR e TAF).

As estações disponíveis são os pontos amarelos e vermelhos sobre o mapa.

Mova o rato sobre o mapa para ver o nome da estação.

Depois clique no ponto para visualizar as observações e previsões meteorológicas.

Para alterar o mapa : clique nos botões verdes com uma cruz preta para aumentar o zoom; no botão verde com uma pitada de zoom; ou nas setas verdes para mapas adjacentes.


METAR-TAF: